sensor_id;sensor_type;location;lat;lon;timestamp;temperature;humidity
20827;DHT22;10574;52.508;13.236;2023-05-29T00:00:28;14.90;99.90
20827;DHT22;10574;52.508;13.236;2023-05-29T00:02:56;14.80;99.90
20827;DHT22;10574;52.508;13.236;2023-05-29T00:05:25;14.70;99.90
20827;DHT22;10574;52.508;13.236;2023-05-29T00:07:52;14.60;99.90
20827;DHT22;10574;52.508;13.236;2023-05-29T00:10:20;14.60;99.90
20827;DHT22;10574;52.508;13.236;2023-05-29T00:12:48;14.60;99.90
20827;DHT22;10574;52.508;13.236;2023-05-29T00:15:16;14.60;99.90
20827;DHT22;10574;52.508;13.236;2023-05-29T00:17:43;14.60;99.90
20827;DHT22;10574;52.508;13.236;2023-05-29T00:20:12;14.60;99.90
20827;DHT22;10574;52.508;13.236;2023-05-29T00:22:39;14.50;99.90
20827;DHT22;10574;52.508;13.236;2023-05-29T00:25:08;14.50;99.90
20827;DHT22;10574;52.508;13.236;2023-05-29T00:27:36;14.40;99.90
20827;DHT22;10574;52.508;13.236;2023-05-29T00:30:04;14.40;99.90
20827;DHT22;10574;52.508;13.236;2023-05-29T00:32:32;14.40;99.90
20827;DHT22;10574;52.508;13.236;2023-05-29T00:35:00;14.40;99.90
20827;DHT22;10574;52.508;13.236;2023-05-29T00:37:28;14.50;99.90
20827;DHT22;10574;52.508;13.236;2023-05-29T00:39:55;14.50;99.90
20827;DHT22;10574;52.508;13.236;2023-05-29T00:42:23;14.40;99.90
20827;DHT22;10574;52.508;13.236;2023-05-29T00:44:51;14.40;99.90
20827;DHT22;10574;52.508;13.236;2023-05-29T00:47:20;14.40;99.90
20827;DHT22;10574;52.508;13.236;2023-05-29T00:49:50;14.40;99.90
20827;DHT22;10574;52.508;13.236;2023-05-29T00:52:19;14.40;99.90
20827;DHT22;10574;52.508;13.236;2023-05-29T00:54:47;14.50;99.90
20827;DHT22;10574;52.508;13.236;2023-05-29T00:57:17;14.40;99.90
20827;DHT22;10574;52.508;13.236;2023-05-29T00:59:46;14.50;99.90
20827;DHT22;10574;52.508;13.236;2023-05-29T01:02:15;14.40;99.90
20827;DHT22;10574;52.508;13.236;2023-05-29T01:04:45;14.30;99.90
20827;DHT22;10574;52.508;13.236;2023-05-29T01:07:13;14.30;99.90
20827;DHT22;10574;52.508;13.236;2023-05-29T01:09:42;14.20;99.90
20827;DHT22;10574;52.508;13.236;2023-05-29T01:12:30;14.20;99.90
20827;DHT22;10574;52.508;13.236;2023-05-29T01:15:01;14.10;99.90
20827;DHT22;10574;52.508;13.236;2023-05-29T01:17:47;14.10;99.90
20827;DHT22;10574;52.508;13.236;2023-05-29T01:20:31;14.00;99.90
20827;DHT22;10574;52.508;13.236;2023-05-29T01:23:34;13.90;99.90
20827;DHT22;10574;52.508;13.236;2023-05-29T01:28:51;13.90;99.90
20827;DHT22;10574;52.508;13.236;2023-05-29T01:31:22;13.90;99.90
20827;DHT22;10574;52.508;13.236;2023-05-29T01:33:57;13.90;99.90
20827;DHT22;10574;52.508;13.236;2023-05-29T01:36:27;13.90;99.90
20827;DHT22;10574;52.508;13.236;2023-05-29T01:38:56;13.80;99.90
20827;DHT22;10574;52.508;13.236;2023-05-29T01:41:25;13.80;99.90
20827;DHT22;10574;52.508;13.236;2023-05-29T01:43:54;13.70;99.90
20827;DHT22;10574;52.508;13.236;2023-05-29T01:46:23;13.70;99.90
20827;DHT22;10574;52.508;13.236;2023-05-29T01:48:55;13.60;99.90
20827;DHT22;10574;52.508;13.236;2023-05-29T01:51:23;13.70;99.90
20827;DHT22;10574;52.508;13.236;2023-05-29T01:53:51;13.70;99.90
20827;DHT22;10574;52.508;13.236;2023-05-29T01:56:19;13.60;99.90
20827;DHT22;10574;52.508;13.236;2023-05-29T01:58:47;13.50;99.90
20827;DHT22;10574;52.508;13.236;2023-05-29T02:01:15;13.50;99.90
20827;DHT22;10574;52.508;13.236;2023-05-29T02:03:43;13.30;99.90
20827;DHT22;10574;52.508;13.236;2023-05-29T02:06:11;13.20;99.90
20827;DHT22;10574;52.508;13.236;2023-05-29T02:08:39;13.20;99.90
20827;DHT22;10574;52.508;13.236;2023-05-29T02:11:07;13.10;99.90
20827;DHT22;10574;52.508;13.236;2023-05-29T02:13:35;13.10;99.90
20827;DHT22;10574;52.508;13.236;2023-05-29T02:16:03;13.10;99.90
20827;DHT22;10574;52.508;13.236;2023-05-29T02:18:31;13.00;99.90
20827;DHT22;10574;52.508;13.236;2023-05-29T02:21:01;12.90;99.90
20827;DHT22;10574;52.508;13.236;2023-05-29T02:23:29;12.90;99.90
20827;DHT22;10574;52.508;13.236;2023-05-29T02:25:57;12.90;99.90
20827;DHT22;10574;52.508;13.236;2023-05-29T02:28:24;12.80;99.90
20827;DHT22;10574;52.508;13.236;2023-05-29T02:30:52;12.90;99.90
20827;DHT22;10574;52.508;13.236;2023-05-29T02:33:20;12.90;99.90
20827;DHT22;10574;52.508;13.236;2023-05-29T02:35:48;12.80;99.90
20827;DHT22;10574;52.508;13.236;2023-05-29T02:38:16;12.90;99.90
20827;DHT22;10574;52.508;13.236;2023-05-29T02:40:44;12.90;99.90
20827;DHT22;10574;52.508;13.236;2023-05-29T02:43:13;12.90;99.90
20827;DHT22;10574;52.508;13.236;2023-05-29T02:45:41;12.90;99.90
20827;DHT22;10574;52.508;13.236;2023-05-29T02:48:09;12.90;99.90
20827;DHT22;10574;52.508;13.236;2023-05-29T02:50:37;12.80;99.90
20827;DHT22;10574;52.508;13.236;2023-05-29T02:53:04;12.80;99.90
20827;DHT22;10574;52.508;13.236;2023-05-29T02:55:32;12.80;99.90
20827;DHT22;10574;52.508;13.236;2023-05-29T02:58:02;12.90;99.90
20827;DHT22;10574;52.508;13.236;2023-05-29T03:00:29;12.80;99.90
20827;DHT22;10574;52.508;13.236;2023-05-29T03:02:57;12.80;99.90
20827;DHT22;10574;52.508;13.236;2023-05-29T03:05:25;12.80;99.90
20827;DHT22;10574;52.508;13.236;2023-05-29T03:07:54;12.80;99.90
20827;DHT22;10574;52.508;13.236;2023-05-29T03:10:22;12.80;99.90
20827;DHT22;10574;52.508;13.236;2023-05-29T03:12:50;12.70;99.90
20827;DHT22;10574;52.508;13.236;2023-05-29T03:15:18;12.60;99.90
20827;DHT22;10574;52.508;13.236;2023-05-29T03:17:47;12.50;99.90
20827;DHT22;10574;52.508;13.236;2023-05-29T03:20:15;12.60;99.90
20827;DHT22;10574;52.508;13.236;2023-05-29T03:22:43;12.60;99.90
20827;DHT22;10574;52.508;13.236;2023-05-29T03:25:11;12.60;99.90
20827;DHT22;10574;52.508;13.236;2023-05-29T03:27:39;12.50;99.90
20827;DHT22;10574;52.508;13.236;2023-05-29T03:30:08;12.60;99.90
20827;DHT22;10574;52.508;13.236;2023-05-29T03:32:37;12.60;99.90
20827;DHT22;10574;52.508;13.236;2023-05-29T03:35:05;12.60;99.90
20827;DHT22;10574;52.508;13.236;2023-05-29T03:37:33;12.50;99.90
20827;DHT22;10574;52.508;13.236;2023-05-29T03:40:01;12.40;99.90
20827;DHT22;10574;52.508;13.236;2023-05-29T03:42:29;12.40;99.90
20827;DHT22;10574;52.508;13.236;2023-05-29T03:44:58;12.30;99.90
20827;DHT22;10574;52.508;13.236;2023-05-29T03:47:25;12.40;99.90
20827;DHT22;10574;52.508;13.236;2023-05-29T03:49:53;12.40;99.90
20827;DHT22;10574;52.508;13.236;2023-05-29T03:52:21;12.40;99.90
20827;DHT22;10574;52.508;13.236;2023-05-29T03:54:49;12.40;99.90
20827;DHT22;10574;52.508;13.236;2023-05-29T03:57:17;12.40;99.90
20827;DHT22;10574;52.508;13.236;2023-05-29T03:59:45;12.40;99.90
20827;DHT22;10574;52.508;13.236;2023-05-29T04:02:12;12.50;99.90
20827;DHT22;10574;52.508;13.236;2023-05-29T04:04:40;12.50;99.90
20827;DHT22;10574;52.508;13.236;2023-05-29T04:07:09;12.50;99.90
20827;DHT22;10574;52.508;13.236;2023-05-29T04:09:37;12.50;99.90
20827;DHT22;10574;52.508;13.236;2023-05-29T04:12:05;12.60;99.90
20827;DHT22;10574;52.508;13.236;2023-05-29T04:14:33;12.60;99.90
20827;DHT22;10574;52.508;13.236;2023-05-29T04:17:01;12.60;99.90
20827;DHT22;10574;52.508;13.236;2023-05-29T04:19:29;12.60;99.90
20827;DHT22;10574;52.508;13.236;2023-05-29T04:21:56;12.50;99.90
20827;DHT22;10574;52.508;13.236;2023-05-29T04:24:24;12.60;99.90
20827;DHT22;10574;52.508;13.236;2023-05-29T04:26:52;12.60;99.90
20827;DHT22;10574;52.508;13.236;2023-05-29T04:29:20;12.70;99.90
20827;DHT22;10574;52.508;13.236;2023-05-29T04:31:48;12.80;99.90
20827;DHT22;10574;52.508;13.236;2023-05-29T04:34:17;12.90;99.90
20827;DHT22;10574;52.508;13.236;2023-05-29T04:36:47;12.80;99.90
20827;DHT22;10574;52.508;13.236;2023-05-29T04:39:14;12.90;99.90
20827;DHT22;10574;52.508;13.236;2023-05-29T04:41:43;13.00;99.90
20827;DHT22;10574;52.508;13.236;2023-05-29T04:44:11;13.10;99.90
20827;DHT22;10574;52.508;13.236;2023-05-29T04:46:40;13.30;99.90
20827;DHT22;10574;52.508;13.236;2023-05-29T04:49:10;13.30;99.90
20827;DHT22;10574;52.508;13.236;2023-05-29T04:51:39;13.40;99.90
20827;DHT22;10574;52.508;13.236;2023-05-29T04:54:08;13.40;99.90
20827;DHT22;10574;52.508;13.236;2023-05-29T04:56:39;13.40;99.90
20827;DHT22;10574;52.508;13.236;2023-05-29T04:59:07;13.40;99.90
20827;DHT22;10574;52.508;13.236;2023-05-29T05:01:36;13.40;99.90
20827;DHT22;10574;52.508;13.236;2023-05-29T05:04:06;13.40;99.90
20827;DHT22;10574;52.508;13.236;2023-05-29T05:06:34;13.50;99.90
20827;DHT22;10574;52.508;13.236;2023-05-29T05:09:02;13.50;99.90
20827;DHT22;10574;52.508;13.236;2023-05-29T05:11:33;13.80;99.90
20827;DHT22;10574;52.508;13.236;2023-05-29T05:14:01;14.00;99.90
20827;DHT22;10574;52.508;13.236;2023-05-29T05:16:29;14.20;99.90
20827;DHT22;10574;52.508;13.236;2023-05-29T05:18:58;14.40;99.90
20827;DHT22;10574;52.508;13.236;2023-05-29T05:21:26;14.60;99.90
20827;DHT22;10574;52.508;13.236;2023-05-29T05:23:55;14.70;99.90
20827;DHT22;10574;52.508;13.236;2023-05-29T05:26:24;15.00;99.90
20827;DHT22;10574;52.508;13.236;2023-05-29T05:28:53;15.50;99.90
20827;DHT22;10574;52.508;13.236;2023-05-29T05:31:21;15.70;99.90
20827;DHT22;10574;52.508;13.236;2023-05-29T05:33:50;15.90;99.90
20827;DHT22;10574;52.508;13.236;2023-05-29T05:36:18;16.00;99.90
20827;DHT22;10574;52.508;13.236;2023-05-29T05:38:46;15.80;99.90
20827;DHT22;10574;52.508;13.236;2023-05-29T05:41:14;15.50;99.90
20827;DHT22;10574;52.508;13.236;2023-05-29T05:43:42;15.50;99.90
20827;DHT22;10574;52.508;13.236;2023-05-29T05:46:10;15.60;99.90
20827;DHT22;10574;52.508;13.236;2023-05-29T05:48:40;15.80;99.90
20827;DHT22;10574;52.508;13.236;2023-05-29T05:51:08;16.10;99.90
20827;DHT22;10574;52.508;13.236;2023-05-29T05:53:37;16.30;99.90
20827;DHT22;10574;52.508;13.236;2023-05-29T05:56:05;16.40;99.90
20827;DHT22;10574;52.508;13.236;2023-05-29T05:58:33;16.50;99.90
20827;DHT22;10574;52.508;13.236;2023-05-29T06:01:01;16.60;99.90
20827;DHT22;10574;52.508;13.236;2023-05-29T06:03:29;17.10;99.90
20827;DHT22;10574;52.508;13.236;2023-05-29T06:05:58;17.70;99.90
20827;DHT22;10574;52.508;13.236;2023-05-29T06:08:26;17.70;99.90
20827;DHT22;10574;52.508;13.236;2023-05-29T06:10:54;17.50;99.90
20827;DHT22;10574;52.508;13.236;2023-05-29T06:13:22;17.60;99.90
20827;DHT22;10574;52.508;13.236;2023-05-29T06:15:50;18.20;99.90
20827;DHT22;10574;52.508;13.236;2023-05-29T06:18:17;17.90;99.90
20827;DHT22;10574;52.508;13.236;2023-05-29T06:20:45;18.10;99.90
20827;DHT22;10574;52.508;13.236;2023-05-29T06:23:13;18.10;99.90
20827;DHT22;10574;52.508;13.236;2023-05-29T06:25:41;18.20;99.90
20827;DHT22;10574;52.508;13.236;2023-05-29T06:28:10;18.00;99.90
20827;DHT22;10574;52.508;13.236;2023-05-29T06:30:39;18.30;99.90
20827;DHT22;10574;52.508;13.236;2023-05-29T06:33:07;18.30;99.90
20827;DHT22;10574;52.508;13.236;2023-05-29T06:35:35;18.20;99.90
20827;DHT22;10574;52.508;13.236;2023-05-29T06:38:02;18.10;99.90
20827;DHT22;10574;52.508;13.236;2023-05-29T06:40:30;18.30;99.90
20827;DHT22;10574;52.508;13.236;2023-05-29T06:42:58;17.80;99.90
20827;DHT22;10574;52.508;13.236;2023-05-29T06:45:28;18.00;99.90
20827;DHT22;10574;52.508;13.236;2023-05-29T06:47:55;18.20;99.90
20827;DHT22;10574;52.508;13.236;2023-05-29T06:50:23;18.40;99.90
20827;DHT22;10574;52.508;13.236;2023-05-29T06:52:51;18.50;99.90
20827;DHT22;10574;52.508;13.236;2023-05-29T06:55:19;18.80;99.90
20827;DHT22;10574;52.508;13.236;2023-05-29T06:57:47;18.90;99.90
20827;DHT22;10574;52.508;13.236;2023-05-29T07:00:16;19.30;99.90
20827;DHT22;10574;52.508;13.236;2023-05-29T07:02:45;19.40;99.90
20827;DHT22;10574;52.508;13.236;2023-05-29T07:05:12;19.00;99.90
20827;DHT22;10574;52.508;13.236;2023-05-29T07:07:40;18.70;99.90
20827;DHT22;10574;52.508;13.236;2023-05-29T07:10:08;19.10;99.90
20827;DHT22;10574;52.508;13.236;2023-05-29T07:12:36;19.40;99.90
20827;DHT22;10574;52.508;13.236;2023-05-29T07:15:04;19.60;99.90
20827;DHT22;10574;52.508;13.236;2023-05-29T07:17:31;19.70;99.90
20827;DHT22;10574;52.508;13.236;2023-05-29T07:19:59;19.50;99.90
20827;DHT22;10574;52.508;13.236;2023-05-29T07:22:27;19.30;99.90
20827;DHT22;10574;52.508;13.236;2023-05-29T07:24:54;19.70;99.90
20827;DHT22;10574;52.508;13.236;2023-05-29T07:27:22;20.20;99.90
20827;DHT22;10574;52.508;13.236;2023-05-29T07:29:50;20.30;99.40
20827;DHT22;10574;52.508;13.236;2023-05-29T07:32:17;20.10;99.90
20827;DHT22;10574;52.508;13.236;2023-05-29T07:34:45;19.80;99.70
20827;DHT22;10574;52.508;13.236;2023-05-29T07:37:13;19.80;99.30
20827;DHT22;10574;52.508;13.236;2023-05-29T07:39:40;19.20;99.90
20827;DHT22;10574;52.508;13.236;2023-05-29T07:42:10;19.80;99.90
20827;DHT22;10574;52.508;13.236;2023-05-29T07:44:38;20.20;99.10
20827;DHT22;10574;52.508;13.236;2023-05-29T07:47:07;20.50;97.70
20827;DHT22;10574;52.508;13.236;2023-05-29T07:49:35;20.80;97.10
20827;DHT22;10574;52.508;13.236;2023-05-29T07:52:08;20.00;97.70
20827;DHT22;10574;52.508;13.236;2023-05-29T07:54:33;19.70;98.10
20827;DHT22;10574;52.508;13.236;2023-05-29T07:57:00;19.40;98.10
20827;DHT22;10574;52.508;13.236;2023-05-29T07:59:30;19.60;99.20
20827;DHT22;10574;52.508;13.236;2023-05-29T08:01:57;19.70;98.40
20827;DHT22;10574;52.508;13.236;2023-05-29T08:04:25;19.60;98.10
20827;DHT22;10574;52.508;13.236;2023-05-29T08:06:52;19.60;98.00
20827;DHT22;10574;52.508;13.236;2023-05-29T08:09:20;20.00;98.70
20827;DHT22;10574;52.508;13.236;2023-05-29T08:11:48;20.10;97.90
20827;DHT22;10574;52.508;13.236;2023-05-29T08:14:15;20.00;98.00
20827;DHT22;10574;52.508;13.236;2023-05-29T08:16:43;19.90;98.20
20827;DHT22;10574;52.508;13.236;2023-05-29T08:19:11;19.90;97.50
20827;DHT22;10574;52.508;13.236;2023-05-29T08:21:40;19.90;96.40
20827;DHT22;10574;52.508;13.236;2023-05-29T08:24:08;20.30;95.80
20827;DHT22;10574;52.508;13.236;2023-05-29T08:26:36;20.60;95.00
20827;DHT22;10574;52.508;13.236;2023-05-29T08:29:04;21.00;94.40
20827;DHT22;10574;52.508;13.236;2023-05-29T08:31:41;20.90;95.40
20827;DHT22;10574;52.508;13.236;2023-05-29T08:34:04;21.00;95.00
20827;DHT22;10574;52.508;13.236;2023-05-29T08:36:33;21.20;96.00
20827;DHT22;10574;52.508;13.236;2023-05-29T08:39:01;21.40;94.40
20827;DHT22;10574;52.508;13.236;2023-05-29T08:44:31;21.40;94.40
20827;DHT22;10574;52.508;13.236;2023-05-29T08:47:01;20.30;95.90
20827;DHT22;10574;52.508;13.236;2023-05-29T08:49:43;20.00;96.90
20827;DHT22;10574;52.508;13.236;2023-05-29T08:52:16;20.40;95.30
20827;DHT22;10574;52.508;13.236;2023-05-29T08:54:45;20.30;95.50
20827;DHT22;10574;52.508;13.236;2023-05-29T08:57:13;20.30;96.10
20827;DHT22;10574;52.508;13.236;2023-05-29T08:59:45;20.70;93.90
20827;DHT22;10574;52.508;13.236;2023-05-29T09:02:14;20.30;93.90
20827;DHT22;10574;52.508;13.236;2023-05-29T09:04:42;20.40;94.20
20827;DHT22;10574;52.508;13.236;2023-05-29T09:07:18;20.20;94.00
20827;DHT22;10574;52.508;13.236;2023-05-29T09:09:47;20.50;94.40
20827;DHT22;10574;52.508;13.236;2023-05-29T09:12:16;21.10;94.90
20827;DHT22;10574;52.508;13.236;2023-05-29T09:14:44;21.60;93.70
20827;DHT22;10574;52.508;13.236;2023-05-29T09:17:13;21.80;91.80
20827;DHT22;10574;52.508;13.236;2023-05-29T09:19:42;21.20;92.00
20827;DHT22;10574;52.508;13.236;2023-05-29T09:22:14;20.70;92.80
20827;DHT22;10574;52.508;13.236;2023-05-29T09:24:45;20.70;93.70
20827;DHT22;10574;52.508;13.236;2023-05-29T09:27:12;20.80;92.80
20827;DHT22;10574;52.508;13.236;2023-05-29T09:29:41;21.20;92.60
20827;DHT22;10574;52.508;13.236;2023-05-29T09:32:18;21.70;92.50
20827;DHT22;10574;52.508;13.236;2023-05-29T09:34:46;21.90;91.50
20827;DHT22;10574;52.508;13.236;2023-05-29T09:37:14;21.50;91.30
20827;DHT22;10574;52.508;13.236;2023-05-29T09:39:45;21.40;91.80
20827;DHT22;10574;52.508;13.236;2023-05-29T09:42:16;21.40;92.70
20827;DHT22;10574;52.508;13.236;2023-05-29T09:44:51;21.50;92.60
20827;DHT22;10574;52.508;13.236;2023-05-29T09:47:18;21.80;92.50
20827;DHT22;10574;52.508;13.236;2023-05-29T09:49:47;22.20;90.70
20827;DHT22;10574;52.508;13.236;2023-05-29T09:52:21;22.10;90.50
20827;DHT22;10574;52.508;13.236;2023-05-29T09:54:46;22.00;90.30
20827;DHT22;10574;52.508;13.236;2023-05-29T09:57:16;21.80;90.80
20827;DHT22;10574;52.508;13.236;2023-05-29T09:59:44;21.30;91.40
20827;DHT22;10574;52.508;13.236;2023-05-29T10:02:15;20.90;91.50
20827;DHT22;10574;52.508;13.236;2023-05-29T10:04:42;20.60;92.00
20827;DHT22;10574;52.508;13.236;2023-05-29T10:07:50;20.50;92.30
20827;DHT22;10574;52.508;13.236;2023-05-29T10:09:56;20.80;92.40
20827;DHT22;10574;52.508;13.236;2023-05-29T10:12:23;21.50;92.60
20827;DHT22;10574;52.508;13.236;2023-05-29T10:14:54;21.40;90.90
20827;DHT22;10574;52.508;13.236;2023-05-29T10:17:25;21.30;91.50
20827;DHT22;10574;52.508;13.236;2023-05-29T10:19:56;21.10;91.10
20827;DHT22;10574;52.508;13.236;2023-05-29T10:22:25;20.90;91.30
20827;DHT22;10574;52.508;13.236;2023-05-29T10:24:56;20.90;91.40
20827;DHT22;10574;52.508;13.236;2023-05-29T10:27:24;21.30;91.10
20827;DHT22;10574;52.508;13.236;2023-05-29T10:30:04;21.40;89.90
20827;DHT22;10574;52.508;13.236;2023-05-29T10:33:05;21.20;87.20
20827;DHT22;10574;52.508;13.236;2023-05-29T10:35:12;21.00;88.60
20827;DHT22;10574;52.508;13.236;2023-05-29T10:37:49;20.70;89.50
20827;DHT22;10574;52.508;13.236;2023-05-29T10:40:15;20.90;89.50
20827;DHT22;10574;52.508;13.236;2023-05-29T10:42:50;21.00;87.70
20827;DHT22;10574;52.508;13.236;2023-05-29T10:50:46;21.00;86.80
20827;DHT22;10574;52.508;13.236;2023-05-29T10:53:23;21.50;85.70
20827;DHT22;10574;52.508;13.236;2023-05-29T10:55:48;21.90;85.40
20827;DHT22;10574;52.508;13.236;2023-05-29T10:58:23;21.80;85.00
20827;DHT22;10574;52.508;13.236;2023-05-29T11:00:53;21.50;86.50
20827;DHT22;10574;52.508;13.236;2023-05-29T11:03:25;21.10;87.20
20827;DHT22;10574;52.508;13.236;2023-05-29T11:06:04;20.60;89.60
20827;DHT22;10574;52.508;13.236;2023-05-29T11:08:47;20.60;88.90
20827;DHT22;10574;52.508;13.236;2023-05-29T11:11:32;20.40;88.60
20827;DHT22;10574;52.508;13.236;2023-05-29T11:14:08;20.70;88.00
20827;DHT22;10574;52.508;13.236;2023-05-29T11:16:37;21.30;85.50
20827;DHT22;10574;52.508;13.236;2023-05-29T11:19:07;21.70;83.60
20827;DHT22;10574;52.508;13.236;2023-05-29T11:21:56;22.00;78.50
20827;DHT22;10574;52.508;13.236;2023-05-29T11:24:24;22.40;78.90
20827;DHT22;10574;52.508;13.236;2023-05-29T11:26:55;22.70;77.80
20827;DHT22;10574;52.508;13.236;2023-05-29T11:29:24;22.50;80.10
20827;DHT22;10574;52.508;13.236;2023-05-29T11:35:10;22.10;80.30
20827;DHT22;10574;52.508;13.236;2023-05-29T11:37:40;22.50;78.60
20827;DHT22;10574;52.508;13.236;2023-05-29T11:40:09;22.70;79.00
20827;DHT22;10574;52.508;13.236;2023-05-29T11:42:42;23.00;80.00
20827;DHT22;10574;52.508;13.236;2023-05-29T11:45:18;23.50;78.00
20827;DHT22;10574;52.508;13.236;2023-05-29T11:48:02;23.50;74.30
20827;DHT22;10574;52.508;13.236;2023-05-29T11:50:28;23.30;72.40
20827;DHT22;10574;52.508;13.236;2023-05-29T11:52:57;23.40;74.80
20827;DHT22;10574;52.508;13.236;2023-05-29T11:55:26;23.20;77.00
20827;DHT22;10574;52.508;13.236;2023-05-29T11:58:00;23.10;78.40
20827;DHT22;10574;52.508;13.236;2023-05-29T12:00:32;22.40;78.40
20827;DHT22;10574;52.508;13.236;2023-05-29T12:03:00;22.30;79.10
20827;DHT22;10574;52.508;13.236;2023-05-29T12:05:31;22.20;78.80
20827;DHT22;10574;52.508;13.236;2023-05-29T12:08:00;22.00;78.70
20827;DHT22;10574;52.508;13.236;2023-05-29T12:10:28;21.90;79.10
20827;DHT22;10574;52.508;13.236;2023-05-29T12:13:00;21.70;80.50
20827;DHT22;10574;52.508;13.236;2023-05-29T12:15:28;22.00;80.60
20827;DHT22;10574;52.508;13.236;2023-05-29T12:17:56;22.30;79.40
20827;DHT22;10574;52.508;13.236;2023-05-29T12:20:25;22.60;78.80
20827;DHT22;10574;52.508;13.236;2023-05-29T12:23:01;22.60;78.20
20827;DHT22;10574;52.508;13.236;2023-05-29T12:25:29;22.30;77.40
20827;DHT22;10574;52.508;13.236;2023-05-29T12:27:57;22.00;77.60
20827;DHT22;10574;52.508;13.236;2023-05-29T12:30:25;21.70;77.60
20827;DHT22;10574;52.508;13.236;2023-05-29T12:32:53;21.60;78.10
20827;DHT22;10574;52.508;13.236;2023-05-29T12:35:23;21.00;78.40
20827;DHT22;10574;52.508;13.236;2023-05-29T12:38:02;21.10;80.80
20827;DHT22;10574;52.508;13.236;2023-05-29T12:40:32;21.30;79.00
20827;DHT22;10574;52.508;13.236;2023-05-29T12:43:07;21.30;78.60
20827;DHT22;10574;52.508;13.236;2023-05-29T12:45:37;21.50;78.60
20827;DHT22;10574;52.508;13.236;2023-05-29T12:48:06;21.90;78.70
20827;DHT22;10574;52.508;13.236;2023-05-29T12:50:39;22.40;77.30
20827;DHT22;10574;52.508;13.236;2023-05-29T12:53:13;22.90;75.30
20827;DHT22;10574;52.508;13.236;2023-05-29T12:55:38;23.20;73.80
20827;DHT22;10574;52.508;13.236;2023-05-29T12:58:14;23.40;71.40
20827;DHT22;10574;52.508;13.236;2023-05-29T13:00:46;23.60;71.30
20827;DHT22;10574;52.508;13.236;2023-05-29T13:03:14;23.80;71.90
20827;DHT22;10574;52.508;13.236;2023-05-29T13:05:42;23.60;72.90
20827;DHT22;10574;52.508;13.236;2023-05-29T13:08:09;23.60;73.40
20827;DHT22;10574;52.508;13.236;2023-05-29T13:10:37;23.80;73.00
20827;DHT22;10574;52.508;13.236;2023-05-29T13:13:06;24.00;72.70
20827;DHT22;10574;52.508;13.236;2023-05-29T13:15:37;24.00;71.60
20827;DHT22;10574;52.508;13.236;2023-05-29T13:18:07;23.90;71.10
20827;DHT22;10574;52.508;13.236;2023-05-29T13:20:34;23.80;70.80
20827;DHT22;10574;52.508;13.236;2023-05-29T13:23:02;23.80;71.90
20827;DHT22;10574;52.508;13.236;2023-05-29T13:25:33;23.80;72.20
20827;DHT22;10574;52.508;13.236;2023-05-29T13:28:20;23.80;70.80
20827;DHT22;10574;52.508;13.236;2023-05-29T13:30:48;23.80;72.00
20827;DHT22;10574;52.508;13.236;2023-05-29T13:33:15;23.70;71.10
20827;DHT22;10574;52.508;13.236;2023-05-29T13:35:43;23.60;69.40
20827;DHT22;10574;52.508;13.236;2023-05-29T13:38:11;22.50;72.20
20827;DHT22;10574;52.508;13.236;2023-05-29T13:40:39;22.90;74.20
20827;DHT22;10574;52.508;13.236;2023-05-29T13:43:06;23.00;70.90
20827;DHT22;10574;52.508;13.236;2023-05-29T13:45:34;23.40;71.40
20827;DHT22;10574;52.508;13.236;2023-05-29T13:48:03;23.60;69.70
20827;DHT22;10574;52.508;13.236;2023-05-29T13:50:30;23.50;71.50
20827;DHT22;10574;52.508;13.236;2023-05-29T13:52:58;23.60;68.90
20827;DHT22;10574;52.508;13.236;2023-05-29T13:55:25;23.80;68.60
20827;DHT22;10574;52.508;13.236;2023-05-29T13:57:53;24.00;68.80
20827;DHT22;10574;52.508;13.236;2023-05-29T14:00:21;23.60;69.60
20827;DHT22;10574;52.508;13.236;2023-05-29T14:02:49;23.30;71.00
20827;DHT22;10574;52.508;13.236;2023-05-29T14:05:17;23.40;71.30
20827;DHT22;10574;52.508;13.236;2023-05-29T14:07:45;23.40;70.40
20827;DHT22;10574;52.508;13.236;2023-05-29T14:10:12;23.10;71.60
20827;DHT22;10574;52.508;13.236;2023-05-29T14:12:40;22.70;71.60
20827;DHT22;10574;52.508;13.236;2023-05-29T14:15:09;22.70;71.90
20827;DHT22;10574;52.508;13.236;2023-05-29T14:17:37;22.50;72.30
20827;DHT22;10574;52.508;13.236;2023-05-29T14:20:06;22.80;72.90
20827;DHT22;10574;52.508;13.236;2023-05-29T14:22:35;23.10;71.80
20827;DHT22;10574;52.508;13.236;2023-05-29T14:25:04;22.70;70.20
20827;DHT22;10574;52.508;13.236;2023-05-29T14:27:32;22.60;72.00
20827;DHT22;10574;52.508;13.236;2023-05-29T14:30:00;23.00;71.70
20827;DHT22;10574;52.508;13.236;2023-05-29T14:32:28;22.80;69.30
20827;DHT22;10574;52.508;13.236;2023-05-29T14:34:56;22.90;71.00
20827;DHT22;10574;52.508;13.236;2023-05-29T14:37:24;23.10;68.60
20827;DHT22;10574;52.508;13.236;2023-05-29T14:39:52;23.00;69.40
20827;DHT22;10574;52.508;13.236;2023-05-29T14:42:20;23.30;68.60
20827;DHT22;10574;52.508;13.236;2023-05-29T14:44:48;23.30;67.70
20827;DHT22;10574;52.508;13.236;2023-05-29T14:47:16;23.40;67.90
20827;DHT22;10574;52.508;13.236;2023-05-29T14:49:45;23.50;67.00
20827;DHT22;10574;52.508;13.236;2023-05-29T14:52:13;23.50;67.10
20827;DHT22;10574;52.508;13.236;2023-05-29T14:54:41;23.50;67.00
20827;DHT22;10574;52.508;13.236;2023-05-29T14:57:08;23.70;65.50
20827;DHT22;10574;52.508;13.236;2023-05-29T14:59:36;23.70;65.90
20827;DHT22;10574;52.508;13.236;2023-05-29T15:02:04;23.90;66.60
20827;DHT22;10574;52.508;13.236;2023-05-29T15:04:32;23.90;66.40
20827;DHT22;10574;52.508;13.236;2023-05-29T15:07:00;23.90;66.20
20827;DHT22;10574;52.508;13.236;2023-05-29T15:09:29;23.30;63.40
20827;DHT22;10574;52.508;13.236;2023-05-29T15:11:57;22.80;65.10
20827;DHT22;10574;52.508;13.236;2023-05-29T15:14:25;22.90;67.30
20827;DHT22;10574;52.508;13.236;2023-05-29T15:16:53;23.00;68.40
20827;DHT22;10574;52.508;13.236;2023-05-29T15:19:21;23.20;69.00
20827;DHT22;10574;52.508;13.236;2023-05-29T15:21:49;23.50;68.70
20827;DHT22;10574;52.508;13.236;2023-05-29T15:24:17;23.50;68.00
20827;DHT22;10574;52.508;13.236;2023-05-29T15:26:45;23.60;67.20
20827;DHT22;10574;52.508;13.236;2023-05-29T15:29:13;23.20;67.30
20827;DHT22;10574;52.508;13.236;2023-05-29T15:31:41;22.90;68.80
20827;DHT22;10574;52.508;13.236;2023-05-29T15:34:09;23.00;69.10
20827;DHT22;10574;52.508;13.236;2023-05-29T15:36:37;23.10;69.80
20827;DHT22;10574;52.508;13.236;2023-05-29T15:39:06;22.90;68.40
20827;DHT22;10574;52.508;13.236;2023-05-29T15:41:34;22.90;70.20